sensor_id;sensor_type;location;lat;lon;timestamp;P1;durP1;ratioP1;P2;durP2;ratioP2
1350;SDS011;669;50.206;9.998;2023-05-14T00:00:58;3.97;;;3.67;;
1350;SDS011;669;50.206;9.998;2023-05-14T00:03:26;3.23;;;3.00;;
1350;SDS011;669;50.206;9.998;2023-05-14T00:05:54;3.77;;;3.57;;
1350;SDS011;669;50.206;9.998;2023-05-14T00:08:23;3.10;;;2.90;;
1350;SDS011;669;50.206;9.998;2023-05-14T00:10:51;3.20;;;3.00;;
1350;SDS011;669;50.206;9.998;2023-05-14T00:13:19;3.40;;;3.20;;
1350;SDS011;669;50.206;9.998;2023-05-14T00:15:47;3.60;;;3.40;;
1350;SDS011;669;50.206;9.998;2023-05-14T00:18:15;3.70;;;3.43;;
1350;SDS011;669;50.206;9.998;2023-05-14T00:20:43;4.07;;;3.77;;
1350;SDS011;669;50.206;9.998;2023-05-14T00:23:11;4.03;;;3.73;;
1350;SDS011;669;50.206;9.998;2023-05-14T00:25:40;4.07;;;3.43;;
1350;SDS011;669;50.206;9.998;2023-05-14T00:28:08;4.20;;;3.90;;
1350;SDS011;669;50.206;9.998;2023-05-14T00:30:36;4.10;;;3.80;;
1350;SDS011;669;50.206;9.998;2023-05-14T00:33:05;3.60;;;3.40;;
1350;SDS011;669;50.206;9.998;2023-05-14T00:35:33;3.40;;;3.20;;
1350;SDS011;669;50.206;9.998;2023-05-14T00:38:01;3.33;;;3.13;;
1350;SDS011;669;50.206;9.998;2023-05-14T00:40:29;4.23;;;3.87;;
1350;SDS011;669;50.206;9.998;2023-05-14T00:42:59;4.53;;;4.17;;
1350;SDS011;669;50.206;9.998;2023-05-14T00:45:27;3.30;;;3.10;;
1350;SDS011;669;50.206;9.998;2023-05-14T00:47:55;3.80;;;3.50;;
1350;SDS011;669;50.206;9.998;2023-05-14T00:50:23;4.47;;;3.43;;
1350;SDS011;669;50.206;9.998;2023-05-14T00:52:51;3.63;;;3.33;;
1350;SDS011;669;50.206;9.998;2023-05-14T00:55:20;3.50;;;3.30;;
1350;SDS011;669;50.206;9.998;2023-05-14T00:57:50;4.30;;;4.00;;
1350;SDS011;669;50.206;9.998;2023-05-14T01:00:21;3.90;;;3.60;;
1350;SDS011;669;50.206;9.998;2023-05-14T01:02:50;3.67;;;3.37;;
1350;SDS011;669;50.206;9.998;2023-05-14T01:05:18;3.57;;;3.37;;
1350;SDS011;669;50.206;9.998;2023-05-14T01:07:48;3.57;;;3.33;;
1350;SDS011;669;50.206;9.998;2023-05-14T01:10:26;3.53;;;3.23;;
1350;SDS011;669;50.206;9.998;2023-05-14T01:12:58;4.07;;;3.63;;
1350;SDS011;669;50.206;9.998;2023-05-14T01:15:35;4.77;;;4.37;;
1350;SDS011;669;50.206;9.998;2023-05-14T01:18:06;3.80;;;3.50;;
1350;SDS011;669;50.206;9.998;2023-05-14T01:20:35;3.77;;;3.47;;
1350;SDS011;669;50.206;9.998;2023-05-14T01:23:05;4.20;;;3.83;;
1350;SDS011;669;50.206;9.998;2023-05-14T01:25:33;4.87;;;4.47;;
1350;SDS011;669;50.206;9.998;2023-05-14T01:28:03;4.60;;;4.20;;
1350;SDS011;669;50.206;9.998;2023-05-14T01:30:39;4.80;;;3.60;;
1350;SDS011;669;50.206;9.998;2023-05-14T01:33:10;3.67;;;3.47;;
1350;SDS011;669;50.206;9.998;2023-05-14T01:35:39;3.50;;;3.20;;
1350;SDS011;669;50.206;9.998;2023-05-14T01:38:09;3.53;;;3.30;;
1350;SDS011;669;50.206;9.998;2023-05-14T01:40:38;3.60;;;3.30;;
1350;SDS011;669;50.206;9.998;2023-05-14T01:43:07;3.07;;;2.87;;
1350;SDS011;669;50.206;9.998;2023-05-14T01:45:35;3.17;;;2.97;;
1350;SDS011;669;50.206;9.998;2023-05-14T01:48:03;3.20;;;3.00;;
1350;SDS011;669;50.206;9.998;2023-05-14T01:50:31;3.90;;;3.47;;
1350;SDS011;669;50.206;9.998;2023-05-14T01:52:59;3.57;;;3.30;;
1350;SDS011;669;50.206;9.998;2023-05-14T01:55:29;3.90;;;3.60;;
1350;SDS011;669;50.206;9.998;2023-05-14T01:57:57;2.80;;;2.60;;
1350;SDS011;669;50.206;9.998;2023-05-14T02:00:25;2.93;;;2.73;;
1350;SDS011;669;50.206;9.998;2023-05-14T02:02:53;3.77;;;3.20;;
1350;SDS011;669;50.206;9.998;2023-05-14T02:05:21;2.73;;;2.57;;
1350;SDS011;669;50.206;9.998;2023-05-14T02:07:50;3.13;;;2.93;;
1350;SDS011;669;50.206;9.998;2023-05-14T02:10:18;3.07;;;2.87;;
1350;SDS011;669;50.206;9.998;2023-05-14T02:12:47;2.73;;;2.53;;
1350;SDS011;669;50.206;9.998;2023-05-14T02:15:15;3.30;;;3.00;;
1350;SDS011;669;50.206;9.998;2023-05-14T02:17:43;3.10;;;2.90;;
1350;SDS011;669;50.206;9.998;2023-05-14T02:20:11;2.90;;;2.70;;
1350;SDS011;669;50.206;9.998;2023-05-14T02:22:40;3.03;;;2.73;;
1350;SDS011;669;50.206;9.998;2023-05-14T02:25:10;3.00;;;2.80;;
1350;SDS011;669;50.206;9.998;2023-05-14T02:27:38;3.83;;;3.53;;
1350;SDS011;669;50.206;9.998;2023-05-14T02:30:09;4.07;;;3.77;;
1350;SDS011;669;50.206;9.998;2023-05-14T02:32:37;3.93;;;3.63;;
1350;SDS011;669;50.206;9.998;2023-05-14T02:35:06;4.30;;;3.90;;
1350;SDS011;669;50.206;9.998;2023-05-14T02:37:34;4.10;;;3.80;;
1350;SDS011;669;50.206;9.998;2023-05-14T02:40:02;3.40;;;3.10;;
1350;SDS011;669;50.206;9.998;2023-05-14T02:42:31;3.20;;;3.00;;
1350;SDS011;669;50.206;9.998;2023-05-14T02:44:59;3.47;;;3.23;;
1350;SDS011;669;50.206;9.998;2023-05-14T02:47:29;4.20;;;3.90;;
1350;SDS011;669;50.206;9.998;2023-05-14T02:49:57;3.50;;;3.30;;
1350;SDS011;669;50.206;9.998;2023-05-14T02:52:25;4.70;;;4.30;;
1350;SDS011;669;50.206;9.998;2023-05-14T02:54:53;3.60;;;3.30;;
1350;SDS011;669;50.206;9.998;2023-05-14T02:57:21;3.33;;;3.13;;
1350;SDS011;669;50.206;9.998;2023-05-14T02:59:49;3.80;;;3.50;;
1350;SDS011;669;50.206;9.998;2023-05-14T03:02:17;3.47;;;3.20;;
1350;SDS011;669;50.206;9.998;2023-05-14T03:04:46;4.20;;;3.83;;
1350;SDS011;669;50.206;9.998;2023-05-14T03:07:14;3.50;;;3.20;;
1350;SDS011;669;50.206;9.998;2023-05-14T03:09:42;3.43;;;3.13;;
1350;SDS011;669;50.206;9.998;2023-05-14T03:12:10;3.40;;;3.20;;
1350;SDS011;669;50.206;9.998;2023-05-14T03:14:39;3.53;;;3.33;;
1350;SDS011;669;50.206;9.998;2023-05-14T03:17:07;3.87;;;3.57;;
1350;SDS011;669;50.206;9.998;2023-05-14T03:19:35;3.77;;;3.47;;
1350;SDS011;669;50.206;9.998;2023-05-14T03:22:05;4.20;;;3.90;;
1350;SDS011;669;50.206;9.998;2023-05-14T03:24:33;3.90;;;3.60;;
1350;SDS011;669;50.206;9.998;2023-05-14T03:27:01;3.83;;;3.50;;
1350;SDS011;669;50.206;9.998;2023-05-14T03:29:29;4.27;;;3.97;;
1350;SDS011;669;50.206;9.998;2023-05-14T03:31:57;3.87;;;3.57;;
1350;SDS011;669;50.206;9.998;2023-05-14T03:34:25;3.90;;;3.60;;
1350;SDS011;669;50.206;9.998;2023-05-14T03:36:53;3.30;;;3.10;;
1350;SDS011;669;50.206;9.998;2023-05-14T03:39:22;3.67;;;3.37;;
1350;SDS011;669;50.206;9.998;2023-05-14T03:41:50;3.93;;;3.20;;
1350;SDS011;669;50.206;9.998;2023-05-14T03:44:18;4.83;;;3.47;;
1350;SDS011;669;50.206;9.998;2023-05-14T03:46:47;3.47;;;3.17;;
1350;SDS011;669;50.206;9.998;2023-05-14T03:49:15;4.00;;;3.67;;
1350;SDS011;669;50.206;9.998;2023-05-14T03:51:43;3.40;;;3.10;;
1350;SDS011;669;50.206;9.998;2023-05-14T03:54:11;4.00;;;3.70;;
1350;SDS011;669;50.206;9.998;2023-05-14T03:56:40;3.43;;;3.23;;
1350;SDS011;669;50.206;9.998;2023-05-14T03:59:08;3.63;;;3.43;;
1350;SDS011;669;50.206;9.998;2023-05-14T04:01:36;3.87;;;3.23;;
1350;SDS011;669;50.206;9.998;2023-05-14T04:04:04;3.53;;;3.23;;
1350;SDS011;669;50.206;9.998;2023-05-14T04:06:32;3.83;;;3.53;;
1350;SDS011;669;50.206;9.998;2023-05-14T04:09:00;3.47;;;3.17;;
1350;SDS011;669;50.206;9.998;2023-05-14T04:11:28;3.60;;;3.30;;
1350;SDS011;669;50.206;9.998;2023-05-14T04:13:57;3.63;;;3.33;;
1350;SDS011;669;50.206;9.998;2023-05-14T04:16:25;3.27;;;3.07;;
1350;SDS011;669;50.206;9.998;2023-05-14T04:18:53;3.30;;;3.00;;
1350;SDS011;669;50.206;9.998;2023-05-14T04:21:21;3.97;;;3.67;;
1350;SDS011;669;50.206;9.998;2023-05-14T04:23:49;4.00;;;3.70;;
1350;SDS011;669;50.206;9.998;2023-05-14T04:26:17;4.10;;;3.80;;
1350;SDS011;669;50.206;9.998;2023-05-14T04:28:45;4.20;;;3.77;;
1350;SDS011;669;50.206;9.998;2023-05-14T04:31:15;4.13;;;3.83;;
1350;SDS011;669;50.206;9.998;2023-05-14T04:33:43;4.90;;;4.50;;
1350;SDS011;669;50.206;9.998;2023-05-14T04:36:11;5.03;;;4.60;;
1350;SDS011;669;50.206;9.998;2023-05-14T04:38:39;4.60;;;4.20;;
1350;SDS011;669;50.206;9.998;2023-05-14T04:41:06;5.47;;;4.87;;
1350;SDS011;669;50.206;9.998;2023-05-14T04:43:34;4.70;;;4.40;;
1350;SDS011;669;50.206;9.998;2023-05-14T04:46:02;5.47;;;4.40;;
1350;SDS011;669;50.206;9.998;2023-05-14T04:48:32;5.83;;;4.87;;
1350;SDS011;669;50.206;9.998;2023-05-14T04:51:00;4.83;;;4.33;;
1350;SDS011;669;50.206;9.998;2023-05-14T04:53:30;5.07;;;4.43;;
1350;SDS011;669;50.206;9.998;2023-05-14T04:55:58;5.10;;;4.63;;
1350;SDS011;669;50.206;9.998;2023-05-14T04:58:26;6.60;;;5.90;;
1350;SDS011;669;50.206;9.998;2023-05-14T05:01:00;4.47;;;4.07;;
1350;SDS011;669;50.206;9.998;2023-05-14T05:03:29;4.63;;;4.23;;
1350;SDS011;669;50.206;9.998;2023-05-14T05:05:58;4.47;;;4.17;;
1350;SDS011;669;50.206;9.998;2023-05-14T05:08:26;4.70;;;4.30;;
1350;SDS011;669;50.206;9.998;2023-05-14T05:10:54;3.73;;;3.43;;
1350;SDS011;669;50.206;9.998;2023-05-14T05:13:22;3.43;;;3.23;;
1350;SDS011;669;50.206;9.998;2023-05-14T05:15:50;3.73;;;3.43;;
1350;SDS011;669;50.206;9.998;2023-05-14T05:18:18;3.80;;;3.50;;
1350;SDS011;669;50.206;9.998;2023-05-14T05:20:46;3.80;;;3.50;;
1350;SDS011;669;50.206;9.998;2023-05-14T05:23:15;4.73;;;4.33;;
1350;SDS011;669;50.206;9.998;2023-05-14T05:25:43;3.70;;;3.40;;
1350;SDS011;669;50.206;9.998;2023-05-14T05:28:11;4.30;;;4.00;;
1350;SDS011;669;50.206;9.998;2023-05-14T05:30:39;4.03;;;3.73;;
1350;SDS011;669;50.206;9.998;2023-05-14T05:33:10;3.23;;;3.03;;
1350;SDS011;669;50.206;9.998;2023-05-14T05:35:38;4.47;;;4.03;;
1350;SDS011;669;50.206;9.998;2023-05-14T05:38:07;4.20;;;3.90;;
1350;SDS011;669;50.206;9.998;2023-05-14T05:40:36;5.77;;;4.57;;
1350;SDS011;669;50.206;9.998;2023-05-14T05:43:04;3.27;;;3.07;;
1350;SDS011;669;50.206;9.998;2023-05-14T05:45:32;4.60;;;4.20;;
1350;SDS011;669;50.206;9.998;2023-05-14T05:48:00;4.43;;;4.13;;
1350;SDS011;669;50.206;9.998;2023-05-14T05:50:28;4.93;;;4.30;;
1350;SDS011;669;50.206;9.998;2023-05-14T05:52:57;4.70;;;4.27;;
1350;SDS011;669;50.206;9.998;2023-05-14T05:55:25;7.13;;;5.37;;
1350;SDS011;669;50.206;9.998;2023-05-14T05:57:56;4.77;;;4.37;;
1350;SDS011;669;50.206;9.998;2023-05-14T06:00:24;6.00;;;5.40;;
1350;SDS011;669;50.206;9.998;2023-05-14T06:02:52;5.60;;;5.00;;
1350;SDS011;669;50.206;9.998;2023-05-14T06:05:21;6.40;;;4.83;;
1350;SDS011;669;50.206;9.998;2023-05-14T06:07:49;5.20;;;4.80;;
1350;SDS011;669;50.206;9.998;2023-05-14T06:10:18;5.77;;;5.30;;
1350;SDS011;669;50.206;9.998;2023-05-14T06:12:47;5.20;;;4.80;;
1350;SDS011;669;50.206;9.998;2023-05-14T06:15:16;5.10;;;4.63;;
1350;SDS011;669;50.206;9.998;2023-05-14T06:17:44;5.40;;;5.00;;
1350;SDS011;669;50.206;9.998;2023-05-14T06:20:12;4.70;;;4.30;;
1350;SDS011;669;50.206;9.998;2023-05-14T06:22:40;4.97;;;4.47;;
1350;SDS011;669;50.206;9.998;2023-05-14T06:25:09;4.80;;;4.40;;
1350;SDS011;669;50.206;9.998;2023-05-14T06:27:37;4.70;;;4.40;;
1350;SDS011;669;50.206;9.998;2023-05-14T06:30:05;5.40;;;5.00;;
1350;SDS011;669;50.206;9.998;2023-05-14T06:32:36;6.07;;;5.47;;
1350;SDS011;669;50.206;9.998;2023-05-14T06:35:04;4.53;;;4.13;;
1350;SDS011;669;50.206;9.998;2023-05-14T06:37:33;4.37;;;4.07;;
1350;SDS011;669;50.206;9.998;2023-05-14T06:40:01;4.80;;;4.40;;
1350;SDS011;669;50.206;9.998;2023-05-14T06:42:30;5.00;;;4.57;;
1350;SDS011;669;50.206;9.998;2023-05-14T06:44:58;5.67;;;5.20;;
1350;SDS011;669;50.206;9.998;2023-05-14T06:47:26;5.23;;;4.73;;
1350;SDS011;669;50.206;9.998;2023-05-14T06:49:55;4.73;;;4.33;;
1350;SDS011;669;50.206;9.998;2023-05-14T06:52:23;4.97;;;4.53;;
1350;SDS011;669;50.206;9.998;2023-05-14T06:54:52;6.13;;;5.63;;
1350;SDS011;669;50.206;9.998;2023-05-14T06:57:20;6.10;;;5.50;;
1350;SDS011;669;50.206;9.998;2023-05-14T06:59:48;5.57;;;4.73;;
1350;SDS011;669;50.206;9.998;2023-05-14T07:02:16;4.70;;;4.20;;
1350;SDS011;669;50.206;9.998;2023-05-14T07:04:44;4.87;;;4.37;;
1350;SDS011;669;50.206;9.998;2023-05-14T07:07:13;7.23;;;4.47;;
1350;SDS011;669;50.206;9.998;2023-05-14T07:09:45;6.00;;;5.50;;
1350;SDS011;669;50.206;9.998;2023-05-14T07:12:14;5.33;;;4.80;;
1350;SDS011;669;50.206;9.998;2023-05-14T07:14:42;5.80;;;5.23;;
1350;SDS011;669;50.206;9.998;2023-05-14T07:17:10;5.30;;;4.87;;
1350;SDS011;669;50.206;9.998;2023-05-14T07:19:38;5.90;;;5.17;;
1350;SDS011;669;50.206;9.998;2023-05-14T07:22:06;5.27;;;4.33;;
1350;SDS011;669;50.206;9.998;2023-05-14T07:24:35;6.37;;;5.10;;
1350;SDS011;669;50.206;9.998;2023-05-14T07:27:03;4.43;;;4.13;;
1350;SDS011;669;50.206;9.998;2023-05-14T07:29:32;5.67;;;5.17;;
1350;SDS011;669;50.206;9.998;2023-05-14T07:32:00;5.33;;;4.83;;
1350;SDS011;669;50.206;9.998;2023-05-14T07:34:28;6.00;;;5.40;;
1350;SDS011;669;50.206;9.998;2023-05-14T07:36:56;5.33;;;4.93;;
1350;SDS011;669;50.206;9.998;2023-05-14T07:39:24;6.20;;;5.60;;
1350;SDS011;669;50.206;9.998;2023-05-14T07:41:53;5.47;;;4.73;;
1350;SDS011;669;50.206;9.998;2023-05-14T07:44:21;4.87;;;4.47;;
1350;SDS011;669;50.206;9.998;2023-05-14T07:46:49;4.87;;;4.37;;
1350;SDS011;669;50.206;9.998;2023-05-14T07:49:17;4.60;;;4.30;;
1350;SDS011;669;50.206;9.998;2023-05-14T07:51:45;4.90;;;4.50;;
1350;SDS011;669;50.206;9.998;2023-05-14T07:54:13;4.73;;;4.27;;
1350;SDS011;669;50.206;9.998;2023-05-14T07:56:41;4.30;;;3.90;;
1350;SDS011;669;50.206;9.998;2023-05-14T07:59:11;5.00;;;4.60;;
1350;SDS011;669;50.206;9.998;2023-05-14T08:01:38;4.77;;;4.47;;
1350;SDS011;669;50.206;9.998;2023-05-14T08:04:07;4.83;;;4.20;;
1350;SDS011;669;50.206;9.998;2023-05-14T08:06:36;4.20;;;3.90;;
1350;SDS011;669;50.206;9.998;2023-05-14T08:09:04;5.00;;;4.60;;
1350;SDS011;669;50.206;9.998;2023-05-14T08:11:33;4.77;;;4.43;;
1350;SDS011;669;50.206;9.998;2023-05-14T08:14:01;5.17;;;4.77;;
1350;SDS011;669;50.206;9.998;2023-05-14T08:16:31;4.70;;;4.37;;
1350;SDS011;669;50.206;9.998;2023-05-14T08:18:59;4.80;;;4.40;;
1350;SDS011;669;50.206;9.998;2023-05-14T08:21:27;4.60;;;4.20;;
1350;SDS011;669;50.206;9.998;2023-05-14T08:23:55;5.03;;;4.40;;
1350;SDS011;669;50.206;9.998;2023-05-14T08:26:22;5.00;;;4.60;;
1350;SDS011;669;50.206;9.998;2023-05-14T08:28:51;4.83;;;4.33;;
1350;SDS011;669;50.206;9.998;2023-05-14T08:31:20;4.90;;;4.60;;
1350;SDS011;669;50.206;9.998;2023-05-14T08:33:49;6.10;;;4.43;;
1350;SDS011;669;50.206;9.998;2023-05-14T08:36:17;5.10;;;4.40;;
1350;SDS011;669;50.206;9.998;2023-05-14T08:38:45;5.30;;;4.10;;
1350;SDS011;669;50.206;9.998;2023-05-14T08:41:13;5.33;;;4.93;;
1350;SDS011;669;50.206;9.998;2023-05-14T08:43:43;4.60;;;4.20;;
1350;SDS011;669;50.206;9.998;2023-05-14T08:46:17;5.50;;;4.33;;
1350;SDS011;669;50.206;9.998;2023-05-14T08:48:52;5.37;;;4.87;;
1350;SDS011;669;50.206;9.998;2023-05-14T08:51:27;4.57;;;4.10;;
1350;SDS011;669;50.206;9.998;2023-05-14T08:53:55;5.23;;;4.70;;
1350;SDS011;669;50.206;9.998;2023-05-14T08:56:28;5.23;;;4.80;;
1350;SDS011;669;50.206;9.998;2023-05-14T08:58:59;4.37;;;4.07;;
1350;SDS011;669;50.206;9.998;2023-05-14T09:01:27;4.07;;;3.77;;
1350;SDS011;669;50.206;9.998;2023-05-14T09:03:57;4.87;;;4.00;;
1350;SDS011;669;50.206;9.998;2023-05-14T09:06:26;4.80;;;4.30;;
1350;SDS011;669;50.206;9.998;2023-05-14T09:08:55;3.33;;;3.13;;
1350;SDS011;669;50.206;9.998;2023-05-14T09:11:23;4.27;;;3.97;;
1350;SDS011;669;50.206;9.998;2023-05-14T09:13:51;5.13;;;4.63;;
1350;SDS011;669;50.206;9.998;2023-05-14T09:16:19;4.10;;;3.67;;
1350;SDS011;669;50.206;9.998;2023-05-14T09:18:48;3.60;;;3.40;;
1350;SDS011;669;50.206;9.998;2023-05-14T09:21:19;4.50;;;4.17;;
1350;SDS011;669;50.206;9.998;2023-05-14T09:23:47;4.00;;;3.70;;
1350;SDS011;669;50.206;9.998;2023-05-14T09:26:22;4.47;;;4.10;;
1350;SDS011;669;50.206;9.998;2023-05-14T09:28:52;4.03;;;3.73;;
1350;SDS011;669;50.206;9.998;2023-05-14T09:31:22;4.40;;;4.00;;
1350;SDS011;669;50.206;9.998;2023-05-14T09:33:50;5.07;;;4.43;;
1350;SDS011;669;50.206;9.998;2023-05-14T09:36:19;4.00;;;3.60;;
1350;SDS011;669;50.206;9.998;2023-05-14T09:38:47;3.93;;;3.57;;
1350;SDS011;669;50.206;9.998;2023-05-14T09:41:15;3.73;;;3.43;;
1350;SDS011;669;50.206;9.998;2023-05-14T09:43:43;5.00;;;4.60;;
1350;SDS011;669;50.206;9.998;2023-05-14T09:46:11;3.73;;;3.53;;
1350;SDS011;669;50.206;9.998;2023-05-14T09:48:39;4.27;;;3.87;;
1350;SDS011;669;50.206;9.998;2023-05-14T09:51:08;4.13;;;3.80;;
1350;SDS011;669;50.206;9.998;2023-05-14T09:53:38;3.80;;;3.50;;
1350;SDS011;669;50.206;9.998;2023-05-14T09:56:06;5.07;;;4.70;;
1350;SDS011;669;50.206;9.998;2023-05-14T09:58:35;5.33;;;4.83;;
1350;SDS011;669;50.206;9.998;2023-05-14T10:01:03;5.27;;;4.83;;
1350;SDS011;669;50.206;9.998;2023-05-14T10:03:32;4.40;;;4.10;;
1350;SDS011;669;50.206;9.998;2023-05-14T10:06:01;5.33;;;4.87;;
1350;SDS011;669;50.206;9.998;2023-05-14T10:08:33;4.60;;;4.20;;
1350;SDS011;669;50.206;9.998;2023-05-14T10:11:04;4.33;;;4.03;;
1350;SDS011;669;50.206;9.998;2023-05-14T10:13:36;4.80;;;4.30;;
1350;SDS011;669;50.206;9.998;2023-05-14T10:16:10;5.33;;;4.63;;
1350;SDS011;669;50.206;9.998;2023-05-14T10:18:42;4.90;;;4.43;;
1350;SDS011;669;50.206;9.998;2023-05-14T10:21:14;4.30;;;4.00;;
1350;SDS011;669;50.206;9.998;2023-05-14T10:23:45;4.33;;;3.90;;
1350;SDS011;669;50.206;9.998;2023-05-14T10:26:17;5.00;;;4.53;;
1350;SDS011;669;50.206;9.998;2023-05-14T10:28:49;4.57;;;4.17;;
1350;SDS011;669;50.206;9.998;2023-05-14T10:31:17;5.40;;;4.90;;
1350;SDS011;669;50.206;9.998;2023-05-14T10:33:49;3.87;;;3.57;;
1350;SDS011;669;50.206;9.998;2023-05-14T10:36:17;4.27;;;3.97;;
1350;SDS011;669;50.206;9.998;2023-05-14T10:38:47;3.63;;;3.33;;
1350;SDS011;669;50.206;9.998;2023-05-14T10:41:23;3.70;;;3.40;;
1350;SDS011;669;50.206;9.998;2023-05-14T10:43:51;4.67;;;4.10;;
1350;SDS011;669;50.206;9.998;2023-05-14T10:46:19;4.07;;;3.77;;
1350;SDS011;669;50.206;9.998;2023-05-14T10:48:47;3.70;;;3.50;;
1350;SDS011;669;50.206;9.998;2023-05-14T10:51:16;4.00;;;3.70;;
1350;SDS011;669;50.206;9.998;2023-05-14T10:53:46;3.80;;;3.60;;
1350;SDS011;669;50.206;9.998;2023-05-14T10:56:15;3.03;;;2.83;;
1350;SDS011;669;50.206;9.998;2023-05-14T10:58:44;3.57;;;3.27;;
1350;SDS011;669;50.206;9.998;2023-05-14T11:01:12;3.33;;;3.13;;
1350;SDS011;669;50.206;9.998;2023-05-14T11:03:41;2.90;;;2.70;;
1350;SDS011;669;50.206;9.998;2023-05-14T11:06:11;5.03;;;3.87;;
1350;SDS011;669;50.206;9.998;2023-05-14T11:08:40;7.77;;;4.17;;
1350;SDS011;669;50.206;9.998;2023-05-14T11:11:09;3.97;;;3.53;;
1350;SDS011;669;50.206;9.998;2023-05-14T11:13:37;3.70;;;3.40;;
1350;SDS011;669;50.206;9.998;2023-05-14T11:16:06;4.30;;;3.90;;
1350;SDS011;669;50.206;9.998;2023-05-14T11:18:38;3.10;;;2.90;;
1350;SDS011;669;50.206;9.998;2023-05-14T11:21:07;3.63;;;3.33;;
1350;SDS011;669;50.206;9.998;2023-05-14T11:23:35;4.83;;;4.23;;
1350;SDS011;669;50.206;9.998;2023-05-14T11:26:03;3.43;;;3.23;;
1350;SDS011;669;50.206;9.998;2023-05-14T11:28:31;6.27;;;4.30;;
1350;SDS011;669;50.206;9.998;2023-05-14T11:30:59;3.10;;;2.90;;
1350;SDS011;669;50.206;9.998;2023-05-14T11:33:28;4.80;;;3.80;;
1350;SDS011;669;50.206;9.998;2023-05-14T11:35:57;3.80;;;3.60;;
1350;SDS011;669;50.206;9.998;2023-05-14T11:38:25;3.17;;;2.97;;
1350;SDS011;669;50.206;9.998;2023-05-14T11:40:53;4.70;;;4.30;;
1350;SDS011;669;50.206;9.998;2023-05-14T11:43:22;2.87;;;2.70;;
1350;SDS011;669;50.206;9.998;2023-05-14T11:45:51;4.37;;;4.03;;
1350;SDS011;669;50.206;9.998;2023-05-14T11:48:20;4.00;;;3.70;;
1350;SDS011;669;50.206;9.998;2023-05-14T11:50:50;3.87;;;3.57;;
1350;SDS011;669;50.206;9.998;2023-05-14T11:53:19;4.07;;;3.87;;
1350;SDS011;669;50.206;9.998;2023-05-14T11:55:51;4.43;;;4.13;;
1350;SDS011;669;50.206;9.998;2023-05-14T11:58:20;4.40;;;4.10;;
1350;SDS011;669;50.206;9.998;2023-05-14T12:00:48;4.40;;;4.10;;
1350;SDS011;669;50.206;9.998;2023-05-14T12:03:17;4.90;;;4.50;;
1350;SDS011;669;50.206;9.998;2023-05-14T12:05:55;4.63;;;4.33;;
1350;SDS011;669;50.206;9.998;2023-05-14T12:08:25;5.37;;;4.93;;
1350;SDS011;669;50.206;9.998;2023-05-14T12:10:54;4.23;;;3.33;;
1350;SDS011;669;50.206;9.998;2023-05-14T12:13:23;4.50;;;4.10;;
1350;SDS011;669;50.206;9.998;2023-05-14T12:15:53;4.07;;;3.77;;
1350;SDS011;669;50.206;9.998;2023-05-14T12:18:23;3.67;;;3.37;;
1350;SDS011;669;50.206;9.998;2023-05-14T12:20:51;3.90;;;3.60;;
1350;SDS011;669;50.206;9.998;2023-05-14T12:23:25;3.67;;;3.47;;
1350;SDS011;669;50.206;9.998;2023-05-14T12:25:53;4.30;;;3.47;;
1350;SDS011;669;50.206;9.998;2023-05-14T12:28:21;4.07;;;3.77;;
1350;SDS011;669;50.206;9.998;2023-05-14T12:30:54;3.13;;;2.93;;
1350;SDS011;669;50.206;9.998;2023-05-14T12:33:23;5.00;;;4.60;;
1350;SDS011;669;50.206;9.998;2023-05-14T12:35:52;6.00;;;4.20;;
1350;SDS011;669;50.206;9.998;2023-05-14T12:38:27;4.97;;;4.57;;
1350;SDS011;669;50.206;9.998;2023-05-14T12:40:55;3.97;;;3.67;;
1350;SDS011;669;50.206;9.998;2023-05-14T12:43:22;3.97;;;3.67;;
1350;SDS011;669;50.206;9.998;2023-05-14T12:45:55;3.77;;;3.47;;
1350;SDS011;669;50.206;9.998;2023-05-14T12:48:23;4.60;;;4.30;;
1350;SDS011;669;50.206;9.998;2023-05-14T12:50:51;4.03;;;3.73;;
1350;SDS011;669;50.206;9.998;2023-05-14T12:53:19;3.43;;;3.20;;
1350;SDS011;669;50.206;9.998;2023-05-14T12:55:48;4.13;;;3.83;;
1350;SDS011;669;50.206;9.998;2023-05-14T12:58:16;4.30;;;3.50;;
1350;SDS011;669;50.206;9.998;2023-05-14T13:00:44;4.07;;;3.70;;
1350;SDS011;669;50.206;9.998;2023-05-14T13:03:12;3.53;;;3.30;;
1350;SDS011;669;50.206;9.998;2023-05-14T13:05:40;3.67;;;3.43;;
1350;SDS011;669;50.206;9.998;2023-05-14T13:08:08;3.47;;;3.27;;
1350;SDS011;669;50.206;9.998;2023-05-14T13:10:36;3.33;;;3.10;;
1350;SDS011;669;50.206;9.998;2023-05-14T13:13:05;4.07;;;3.77;;
1350;SDS011;669;50.206;9.998;2023-05-14T13:15:34;3.00;;;2.77;;
1350;SDS011;669;50.206;9.998;2023-05-14T13:18:02;3.50;;;3.30;;
1350;SDS011;669;50.206;9.998;2023-05-14T13:20:30;3.83;;;3.53;;
1350;SDS011;669;50.206;9.998;2023-05-14T13:22:59;3.40;;;3.20;;
1350;SDS011;669;50.206;9.998;2023-05-14T13:25:27;3.33;;;3.03;;
1350;SDS011;669;50.206;9.998;2023-05-14T13:27:55;3.23;;;3.03;;
1350;SDS011;669;50.206;9.998;2023-05-14T13:30:24;3.13;;;2.93;;
1350;SDS011;669;50.206;9.998;2023-05-14T13:32:52;2.73;;;2.53;;
1350;SDS011;669;50.206;9.998;2023-05-14T13:35:20;2.93;;;2.73;;
1350;SDS011;669;50.206;9.998;2023-05-14T13:37:48;2.97;;;2.77;;
1350;SDS011;669;50.206;9.998;2023-05-14T13:40:16;3.27;;;3.07;;
1350;SDS011;669;50.206;9.998;2023-05-14T13:42:44;2.97;;;2.77;;
1350;SDS011;669;50.206;9.998;2023-05-14T13:45:12;2.93;;;2.73;;
1350;SDS011;669;50.206;9.998;2023-05-14T13:47:41;3.37;;;3.17;;
1350;SDS011;669;50.206;9.998;2023-05-14T13:50:09;2.67;;;2.47;;
1350;SDS011;669;50.206;9.998;2023-05-14T13:52:37;2.60;;;2.50;;
1350;SDS011;669;50.206;9.998;2023-05-14T13:55:06;2.93;;;2.63;;
1350;SDS011;669;50.206;9.998;2023-05-14T13:57:34;2.40;;;2.30;;
1350;SDS011;669;50.206;9.998;2023-05-14T14:00:02;2.67;;;2.47;;
1350;SDS011;669;50.206;9.998;2023-05-14T14:02:31;2.63;;;2.43;;
1350;SDS011;669;50.206;9.998;2023-05-14T14:05:01;2.53;;;2.43;;
1350;SDS011;669;50.206;9.998;2023-05-14T14:07:29;3.17;;;2.87;;
1350;SDS011;669;50.206;9.998;2023-05-14T14:09:57;2.80;;;2.47;;
1350;SDS011;669;50.206;9.998;2023-05-14T14:12:26;3.37;;;3.07;;
1350;SDS011;669;50.206;9.998;2023-05-14T14:14:54;2.63;;;2.43;;
1350;SDS011;669;50.206;9.998;2023-05-14T14:17:22;2.47;;;2.27;;
1350;SDS011;669;50.206;9.998;2023-05-14T14:19:50;2.60;;;2.47;;
1350;SDS011;669;50.206;9.998;2023-05-14T14:22:19;3.10;;;2.90;;
1350;SDS011;669;50.206;9.998;2023-05-14T14:24:50;3.70;;;3.40;;
1350;SDS011;669;50.206;9.998;2023-05-14T14:27:17;3.60;;;3.30;;
1350;SDS011;669;50.206;9.998;2023-05-14T14:29:45;2.97;;;2.77;;
1350;SDS011;669;50.206;9.998;2023-05-14T14:32:13;3.60;;;3.30;;
1350;SDS011;669;50.206;9.998;2023-05-14T14:34:41;2.67;;;2.50;;
1350;SDS011;669;50.206;9.998;2023-05-14T14:37:09;3.50;;;3.20;;
1350;SDS011;669;50.206;9.998;2023-05-14T14:39:38;3.30;;;2.97;;
1350;SDS011;669;50.206;9.998;2023-05-14T14:42:06;4.20;;;3.10;;
1350;SDS011;669;50.206;9.998;2023-05-14T14:44:34;3.07;;;2.87;;
1350;SDS011;669;50.206;9.998;2023-05-14T14:47:02;3.17;;;2.97;;
1350;SDS011;669;50.206;9.998;2023-05-14T14:49:30;2.20;;;2.10;;
1350;SDS011;669;50.206;9.998;2023-05-14T14:51:58;3.23;;;2.93;;
1350;SDS011;669;50.206;9.998;2023-05-14T14:54:26;2.93;;;2.73;;
1350;SDS011;669;50.206;9.998;2023-05-14T14:56:55;3.10;;;2.90;;
1350;SDS011;669;50.206;9.998;2023-05-14T14:59:23;3.40;;;3.10;;
1350;SDS011;669;50.206;9.998;2023-05-14T15:01:51;4.33;;;2.83;;
1350;SDS011;669;50.206;9.998;2023-05-14T15:04:19;2.47;;;2.27;;
1350;SDS011;669;50.206;9.998;2023-05-14T15:06:47;3.60;;;3.30;;
1350;SDS011;669;50.206;9.998;2023-05-14T15:09:15;3.87;;;3.60;;
1350;SDS011;669;50.206;9.998;2023-05-14T15:11:43;3.20;;;3.00;;
1350;SDS011;669;50.206;9.998;2023-05-14T15:14:12;3.50;;;3.20;;
1350;SDS011;669;50.206;9.998;2023-05-14T15:16:40;3.10;;;2.90;;
1350;SDS011;669;50.206;9.998;2023-05-14T15:19:08;3.30;;;3.10;;
1350;SDS011;669;50.206;9.998;2023-05-14T15:21:36;3.90;;;3.60;;
1350;SDS011;669;50.206;9.998;2023-05-14T15:24:05;3.73;;;3.50;;
1350;SDS011;669;50.206;9.998;2023-05-14T15:26:33;2.90;;;2.70;;
1350;SDS011;669;50.206;9.998;2023-05-14T15:29:01;3.10;;;2.90;;
1350;SDS011;669;50.206;9.998;2023-05-14T15:31:31;2.73;;;2.53;;
1350;SDS011;669;50.206;9.998;2023-05-14T15:33:59;3.47;;;3.23;;
1350;SDS011;669;50.206;9.998;2023-05-14T15:36:27;3.30;;;3.10;;
1350;SDS011;669;50.206;9.998;2023-05-14T15:38:55;3.07;;;2.87;;